AirNav   Everest Fuels
 
 467 users online  

9K6 Patty Field Airport
El Dorado, Kansas, USA

GOING TO EL DORADO?


FAA INFORMATION EFFECTIVE 08 SEPTEMBER 2022

Location

FAA Identifier: 9K6
Lat/Long: 37-48-01.6000N 096-47-56.5000W
37-48.026667N 096-47.941667W
37.8004444,-96.7990278
(estimated)
Elevation: 1385 ft. / 422 m (estimated)
Variation: 06E (1985)
From city: 3 miles SE of EL DORADO, KS
Time zone: UTC -5 (UTC -6 during Standard Time)
Zip code: 67042

Airport Operations

Airport use: Open to the public
Activation date: 05/1963
Control tower: no
ARTCC: KANSAS CITY CENTER
FSS: WICHITA FLIGHT SERVICE STATION
NOTAMs facility: ICT (NOTAM-D service available)
Attendance: UNATNDD
OWNER LIVES ON FIELD.
Wind indicator: yes
Segmented circle: no

Airport Communications

CTAF: 122.9
WX AWOS-3P at EQA (1.8 nm SW): 120.875 (316-322-8095)
WX AWOS-2 at 1K1 (15 nm W): 118.3 (316-530-6004)
WX AWOS-3P at 3AU (15 nm SW): 124.175 (316-733-6696)

Nearby radio navigation aids

VOR radial/distance  VOR name  Freq  Var
ICTr078/37.4WICHITA VORTAC113.8007E

Airport Services

Parking: hangars and tiedowns
Airframe service: MAJOR
Powerplant service: MAJOR
Bottled oxygen: NONE
Bulk oxygen: NONE

Runway Information

Runway 18/36

Dimensions: 1800 x 60 ft. / 549 x 18 m
Surface: turf, in fair condition
RUNWAY 18  RUNWAY 36
Traffic pattern: leftleft
Obstructions: 4 ft. fence, marked4 ft. fence, marked

Airport Ownership and Management from official FAA records

Ownership: Privately-owned
Owner: BRENT A. PATTY
1761 SE BLUESTEM ROAD
EL DORADO, KS 67042
Phone 316-321-9192
Manager: BRENT A. PATTY
1761 SE BLUESTEM ROAD
EL DORADO, KS 67042
Phone 316-321-9192

Airport Operational Statistics

Aircraft based on the field: 2
Single engine airplanes: 2
    
Aircraft operations: avg 54/month *
92% local general aviation
8% transient general aviation
* for 12-month period ending 02 August 2020

Additional Remarks

WATER TOWER 1/4 MILE NE.
FOR CD CTC WICHITA APCH AT 316-350-1520.
RWY 18 42 FT TREES 300 FT FM RWY END OBSTN CLNC 7:1
RWY 36 35 FT TREES 110 FT LEFT AND 75 FT RIGHT AT THLD

Instrument Procedures

There are no published instrument procedures at 9K6.

Some nearby airports with instrument procedures:

KEQA - El Dorado/Capt Jack Thomas Memorial Airport (2 nm SW)
1K1 - Lloyd Stearman Field Airport (15 nm W)
3AU - Augusta Municipal Airport (15 nm SW)
KAAO - Colonel James Jabara Airport (20 nm W)
KBEC - Beech Factory Airport (21 nm W)
 
Loc | Ops | Rwys | IFR | FBO | Links
Com | Nav | Svcs | Stats | Notes
Area around 9K6 (Patty Field Airport)
 
Road maps at: MapQuest Bing Google
 
Aerial photo
WARNING: Photo may not be current or correct
Aerial photo of 9K6 (Patty Field Airport)
Do you have a better or more recent aerial photo of Patty Field Airport that you would like to share? If so, please send us your photo.

 
Sectional chart

 
Airport distance calculator
Flying to Patty Field Airport? Find the distance to fly.

From to 9K6

Sunrise and sunset
Times for 03-Oct-2022
 Local
(UTC-5)
 Zulu
(UTC)
Morning civil twilight06:5911:59
Sunrise07:2612:26
Sunset19:0700:07
Evening civil twilight19:3300:33

Current date and time
Zulu (UTC)  03-Oct-2022 06:29:02
Local (UTC-5)  03-Oct-2022 01:29:02
 
METAR
KEQA 
2nm SW 
030615Z AUTO 12006KT 10SM CLR 15/03 A3022 RMK AO2
K1K1 
15nm W 
030615Z AUTO 13003KT 10SM CLR 13/01 A3022 RMK AO2 T01320011
K3AU 
15nm SW 
030615Z AUTO 11004KT 10SM CLR 14/00 A3022 RMK AO2
TAF
KIAB 
25nm SW 
030400Z 0304/0410 13006KT 9999 SKC QNH3011INS WND 17009 AFT 0316 TX29/0321Z TN12/0312Z
NOTAMs
Click for the latest NOTAMs
NOTAMs are issued by the DoD/FAA and will open in a separate window not controlled by AirNav.

 

 
 

Would you like to see your business listed on this page?

 If your business provides an interesting product or service to pilots, flight crews, aircraft, or users of the Patty Field Airport, you should consider listing it here.  To start the listing process, click on the button below
 
Add a business
 

Other Pages about Patty Field Airport

Update a link
 
Copyright © AirNav, LLC. All rights reserved. Privacy Policy  Contact